Down Up Stop Top

TXC259
There are no active watches, warnings or advisories

Record high temperature 111.6°F Record low temperature 13.3°F Record high gust 49.5 mph Record high average 32.4 mph Record daily rain 4.23 in. Record low windchill 4.3°F Record high barometer 30.637 in. Record low barometer 28.496 in.
Daily high pressure 30.106 in. Daily low pressure 30.047 in. Daily low windchill 63.3°F Daily high heat index 66.9°F Daily high gust speed 15.2 mph SSE Daily high average speed 12.8 mph SSE
Welfare-Texas Weather
LAST READING AT TIME: 05:45 DATE: April 20 2014, time of next update: 05:50
Current WeatherNight time/Dry Current Temperature 63.3°F (17.4°C) (Heat Index 63.3°F ), Apparent temp 59.6°F
Maximum Temperature (since midnight)66.9°F at: 00:00 Minimum Temperature (since midnight)63.3°F at: 05:24
Average windspeed (ten minute)3.4 mph Wind Direction (ten minute)ESE (114°)
Heat Index 63.3°F Maximum Gust (last hour)7.8 mph at: 05:18
Maximum Gust (since midnight)15.2 mph at: 00:27 Maximum 1 minute average (since midnight)12.8 mph at: 00:28
Rainfall (last hour)0.00 in. (0.0 mm) Rainfall (since midnight)0.00 in. (0.0 mm) ---
Rainfall This month 0.33 in. (8.4 mm) Rainfall To date this year 1.26 in. (32.0 mm)
Maximum rain per minute (last hour)0.00 in/min Maximum rain per hour (last 6 hours)0.00 in/hour
Yesterdays rainfall 0.00 in DewPoint 29.6°F (Wet Bulb :49.1°F )
Humidity 28 %, Humidex 58.9°F Barometer corrected to msl30.076 in. (1018.5 hPa)
Pressure change 0.00 in. (last hour) Trend (last hour)STEADY
Pressure change (last 12 hours)+0.00 in Pressure change (last 6 hours)-0.03 in

This page is updated from recent data collected by a WMR200 weather station Use the Reload or Refresh facility on your browser to retrieve the latest data.


Click here for the last 24 hour graph
Click here for the last 48 hour graph
Click here for the last 72 hour graph
Click here for the month to date graph


Weather report/warning/Metars

SAN ANTONIO INTERNATIONAL  AIRPORT , TX, United States (KSAT) 29-32N 098-28W 243M
Apr 20, 2014 - 05:51 AM EDT / 2014.04.20 0951 UTC
Wind: from the ESE (110 degrees) at 7 MPH (6 KT):0
Visibility: 10 mile(s):0
Sky conditions: overcast
Temperature: 66.0 F (18.9 C)
Dew Point: 61.0 F (16.1 C)
Relative Humidity: 83%
Pressure (altimeter): 30.1 in. Hg (1019 hPa)
ob: KSAT 200951Z 11006KT 10SM BKN012 OVC070 19/16 A3010 RMK AO2 SLP176 GIG RGD T01890161 
cycle: 10
NEW BRAUNFELS MUNICIPAL AIRPORT, TX, United States (KBAZ) 29-43N 98-03W 195M
Apr 20, 2014 - 06:22 AM EDT / 2014.04.20 1022 UTC
Wind: from the ESE (110 degrees) at 5 MPH (4 KT):0
Visibility: 10 mile(s):0
Sky conditions: overcast
Temperature: 64.0 F (17.8 C)
Dew Point: 61.0 F (16.1 C)
Relative Humidity: 89%
Pressure (altimeter): 30.1 in. Hg (1019 hPa)
ob: KBAZ 201022Z AUTO 11004KT 10SM OVC009 18/16 A3010 RMK AO2 T01780161
cycle: 10
Kerrville, Kerrville Municipal Airport/Louis Schreiner Field, TX, United States (KERV) 29-58N 099-05W
Apr 20, 2014 - 06:15 AM EDT / 2014.04.20 1015 UTC
Wind: from the ESE (120 degrees) at 6 MPH (5 KT):0
Visibility: 10 mile(s):0
Sky conditions: overcast
Temperature: 62.6 F (17.0 C)
Dew Point: 57.6 F (14.2 C)
Relative Humidity: 83%
Pressure (altimeter): 30.1 in. Hg (1019 hPa)
ob: KERV 201015Z AUTO 12005KT 10SM OVC015 17/14 A3010 RMK AO2 T01700142
cycle: 10
BANGOR INT'L AIRPORT, ME, United States (KBGR) 44-48N 068-49W 57M
Apr 20, 2014 - 05:53 AM EDT / 2014.04.20 0953 UTC
Wind: Calm:0
Visibility: 10 mile(s):0
Sky conditions: mostly clear
Temperature: 26.1 F (-3.3 C)
Dew Point: 18.0 F (-7.8 C)
Relative Humidity: 70%
Pressure (altimeter): 30.47 in. Hg (1031 hPa)
ob: KBGR 200953Z 00000KT 10SM FEW250 M03/M08 A3047 RMK AO2 SLP321 T10331078
cycle: 10



The data is logged at two minute intervals, but there is data recorded every minute.

Use the RELOAD facility on your browser to retrieve the latest data.

Click here for a daily update of the averages/extremes to date for the month


Created by "Weather Display" software version 10.37R Build 23 at this start time/date 14:23 9/20/2013